sensor_id;sensor_type;location;lat;lon;timestamp;P1;durP1;ratioP1;P2;durP2;ratioP2
22024;SDS011;11176;51.448;6.650;2023-06-14T00:00:32;7.57;;;4.50;;
22024;SDS011;11176;51.448;6.650;2023-06-14T00:03:01;8.45;;;4.47;;
22024;SDS011;11176;51.448;6.650;2023-06-14T00:05:30;6.40;;;4.35;;
22024;SDS011;11176;51.448;6.650;2023-06-14T00:07:58;10.88;;;4.63;;
22024;SDS011;11176;51.448;6.650;2023-06-14T00:10:26;6.63;;;4.20;;
22024;SDS011;11176;51.448;6.650;2023-06-14T00:12:57;7.35;;;4.10;;
22024;SDS011;11176;51.448;6.650;2023-06-14T00:15:23;5.90;;;3.95;;
22024;SDS011;11176;51.448;6.650;2023-06-14T00:17:50;8.65;;;4.82;;
22024;SDS011;11176;51.448;6.650;2023-06-14T00:20:17;6.47;;;3.65;;
22024;SDS011;11176;51.448;6.650;2023-06-14T00:22:44;8.57;;;3.70;;
22024;SDS011;11176;51.448;6.650;2023-06-14T00:25:11;5.07;;;3.83;;
22024;SDS011;11176;51.448;6.650;2023-06-14T00:27:55;6.22;;;3.95;;
22024;SDS011;11176;51.448;6.650;2023-06-14T00:30:22;6.78;;;4.30;;
22024;SDS011;11176;51.448;6.650;2023-06-14T00:32:49;9.15;;;4.20;;
22024;SDS011;11176;51.448;6.650;2023-06-14T00:35:16;7.68;;;4.28;;
22024;SDS011;11176;51.448;6.650;2023-06-14T00:37:43;8.35;;;4.22;;
22024;SDS011;11176;51.448;6.650;2023-06-14T00:40:09;7.38;;;4.13;;
22024;SDS011;11176;51.448;6.650;2023-06-14T00:42:36;8.25;;;4.53;;
22024;SDS011;11176;51.448;6.650;2023-06-14T00:45:03;6.43;;;4.15;;
22024;SDS011;11176;51.448;6.650;2023-06-14T00:47:30;6.50;;;4.18;;
22024;SDS011;11176;51.448;6.650;2023-06-14T00:49:57;5.43;;;4.20;;
22024;SDS011;11176;51.448;6.650;2023-06-14T00:52:26;6.43;;;4.30;;
22024;SDS011;11176;51.448;6.650;2023-06-14T00:54:53;8.90;;;4.22;;
22024;SDS011;11176;51.448;6.650;2023-06-14T00:57:20;6.45;;;4.25;;
22024;SDS011;11176;51.448;6.650;2023-06-14T00:59:47;9.15;;;4.35;;
22024;SDS011;11176;51.448;6.650;2023-06-14T01:02:15;8.18;;;4.38;;
22024;SDS011;11176;51.448;6.650;2023-06-14T01:04:43;5.38;;;3.67;;
22024;SDS011;11176;51.448;6.650;2023-06-14T01:07:13;6.00;;;4.00;;
22024;SDS011;11176;51.448;6.650;2023-06-14T01:15:19;6.38;;;4.18;;
22024;SDS011;11176;51.448;6.650;2023-06-14T01:17:48;12.10;;;4.53;;
22024;SDS011;11176;51.448;6.650;2023-06-14T01:20:19;6.53;;;4.07;;
22024;SDS011;11176;51.448;6.650;2023-06-14T01:22:50;9.63;;;3.88;;
22024;SDS011;11176;51.448;6.650;2023-06-14T01:25:19;8.50;;;4.40;;
22024;SDS011;11176;51.448;6.650;2023-06-14T01:27:48;9.18;;;3.80;;
22024;SDS011;11176;51.448;6.650;2023-06-14T01:30:20;5.20;;;3.78;;
22024;SDS011;11176;51.448;6.650;2023-06-14T01:32:49;8.02;;;3.97;;
22024;SDS011;11176;51.448;6.650;2023-06-14T01:35:16;5.68;;;3.70;;
22024;SDS011;11176;51.448;6.650;2023-06-14T01:37:43;5.50;;;3.60;;
22024;SDS011;11176;51.448;6.650;2023-06-14T01:40:14;6.57;;;3.78;;
22024;SDS011;11176;51.448;6.650;2023-06-14T01:42:42;6.53;;;3.92;;
22024;SDS011;11176;51.448;6.650;2023-06-14T01:45:10;6.50;;;3.60;;
22024;SDS011;11176;51.448;6.650;2023-06-14T01:47:37;5.78;;;3.75;;
22024;SDS011;11176;51.448;6.650;2023-06-14T01:50:05;7.18;;;4.05;;
22024;SDS011;11176;51.448;6.650;2023-06-14T01:52:32;6.47;;;4.03;;
22024;SDS011;11176;51.448;6.650;2023-06-14T01:54:58;6.72;;;3.35;;
22024;SDS011;11176;51.448;6.650;2023-06-14T01:57:28;4.97;;;3.40;;
22024;SDS011;11176;51.448;6.650;2023-06-14T01:59:55;6.50;;;3.60;;
22024;SDS011;11176;51.448;6.650;2023-06-14T02:02:24;8.35;;;4.15;;
22024;SDS011;11176;51.448;6.650;2023-06-14T02:04:52;6.60;;;3.60;;
22024;SDS011;11176;51.448;6.650;2023-06-14T02:07:19;7.72;;;4.10;;
22024;SDS011;11176;51.448;6.650;2023-06-14T02:09:45;9.02;;;4.60;;
22024;SDS011;11176;51.448;6.650;2023-06-14T02:12:12;7.60;;;4.35;;
22024;SDS011;11176;51.448;6.650;2023-06-14T02:14:39;7.00;;;4.07;;
22024;SDS011;11176;51.448;6.650;2023-06-14T02:17:05;4.95;;;3.92;;
22024;SDS011;11176;51.448;6.650;2023-06-14T02:19:33;8.52;;;4.18;;
22024;SDS011;11176;51.448;6.650;2023-06-14T02:22:00;7.95;;;4.03;;
22024;SDS011;11176;51.448;6.650;2023-06-14T02:24:26;5.40;;;3.75;;
22024;SDS011;11176;51.448;6.650;2023-06-14T02:26:53;8.57;;;4.03;;
22024;SDS011;11176;51.448;6.650;2023-06-14T02:29:19;9.10;;;4.40;;
22024;SDS011;11176;51.448;6.650;2023-06-14T02:31:47;7.38;;;4.20;;
22024;SDS011;11176;51.448;6.650;2023-06-14T02:34:14;5.97;;;3.90;;
22024;SDS011;11176;51.448;6.650;2023-06-14T02:36:46;7.78;;;4.30;;
22024;SDS011;11176;51.448;6.650;2023-06-14T02:39:14;7.00;;;3.88;;
22024;SDS011;11176;51.448;6.650;2023-06-14T02:41:42;5.70;;;3.55;;
22024;SDS011;11176;51.448;6.650;2023-06-14T02:44:09;7.93;;;4.10;;
22024;SDS011;11176;51.448;6.650;2023-06-14T02:46:37;8.73;;;3.97;;
22024;SDS011;11176;51.448;6.650;2023-06-14T02:49:04;6.97;;;4.13;;
22024;SDS011;11176;51.448;6.650;2023-06-14T02:51:31;7.82;;;4.00;;
22024;SDS011;11176;51.448;6.650;2023-06-14T02:53:57;11.10;;;4.18;;
22024;SDS011;11176;51.448;6.650;2023-06-14T02:56:24;9.20;;;4.13;;
22024;SDS011;11176;51.448;6.650;2023-06-14T02:58:52;6.60;;;3.97;;
22024;SDS011;11176;51.448;6.650;2023-06-14T03:01:19;7.00;;;3.97;;
22024;SDS011;11176;51.448;6.650;2023-06-14T03:03:47;8.77;;;4.03;;
22024;SDS011;11176;51.448;6.650;2023-06-14T03:06:14;7.40;;;4.13;;
22024;SDS011;11176;51.448;6.650;2023-06-14T03:08:44;7.40;;;4.30;;
22024;SDS011;11176;51.448;6.650;2023-06-14T03:11:14;7.63;;;4.18;;
22024;SDS011;11176;51.448;6.650;2023-06-14T03:13:41;9.32;;;3.75;;
22024;SDS011;11176;51.448;6.650;2023-06-14T03:16:08;8.38;;;4.15;;
22024;SDS011;11176;51.448;6.650;2023-06-14T03:18:37;8.30;;;3.70;;
22024;SDS011;11176;51.448;6.650;2023-06-14T03:21:05;7.93;;;4.05;;
22024;SDS011;11176;51.448;6.650;2023-06-14T03:23:33;5.40;;;3.70;;
22024;SDS011;11176;51.448;6.650;2023-06-14T03:26:02;8.68;;;3.55;;
22024;SDS011;11176;51.448;6.650;2023-06-14T03:28:29;8.00;;;3.60;;
22024;SDS011;11176;51.448;6.650;2023-06-14T03:30:57;6.80;;;3.45;;
22024;SDS011;11176;51.448;6.650;2023-06-14T03:33:25;7.15;;;3.65;;
22024;SDS011;11176;51.448;6.650;2023-06-14T03:35:52;7.30;;;3.45;;
22024;SDS011;11176;51.448;6.650;2023-06-14T03:38:18;8.25;;;3.90;;
22024;SDS011;11176;51.448;6.650;2023-06-14T03:40:45;5.68;;;3.72;;
22024;SDS011;11176;51.448;6.650;2023-06-14T03:43:12;8.23;;;3.42;;
22024;SDS011;11176;51.448;6.650;2023-06-14T03:45:39;9.00;;;4.07;;
22024;SDS011;11176;51.448;6.650;2023-06-14T03:48:08;7.28;;;3.55;;
22024;SDS011;11176;51.448;6.650;2023-06-14T03:50:36;7.47;;;3.50;;
22024;SDS011;11176;51.448;6.650;2023-06-14T03:53:06;5.93;;;3.47;;
22024;SDS011;11176;51.448;6.650;2023-06-14T03:55:35;7.15;;;3.42;;
22024;SDS011;11176;51.448;6.650;2023-06-14T03:58:24;5.22;;;3.08;;
22024;SDS011;11176;51.448;6.650;2023-06-14T04:00:50;7.20;;;3.50;;
22024;SDS011;11176;51.448;6.650;2023-06-14T04:03:17;7.07;;;3.47;;
22024;SDS011;11176;51.448;6.650;2023-06-14T04:05:46;7.28;;;3.33;;
22024;SDS011;11176;51.448;6.650;2023-06-14T04:08:17;5.63;;;3.55;;
22024;SDS011;11176;51.448;6.650;2023-06-14T04:10:45;6.32;;;3.30;;
22024;SDS011;11176;51.448;6.650;2023-06-14T04:13:13;7.53;;;3.33;;
22024;SDS011;11176;51.448;6.650;2023-06-14T04:15:41;4.68;;;2.78;;
22024;SDS011;11176;51.448;6.650;2023-06-14T04:18:11;5.70;;;3.22;;
22024;SDS011;11176;51.448;6.650;2023-06-14T04:20:38;6.97;;;3.10;;
22024;SDS011;11176;51.448;6.650;2023-06-14T04:23:15;7.75;;;3.28;;
22024;SDS011;11176;51.448;6.650;2023-06-14T04:25:45;4.90;;;2.83;;
22024;SDS011;11176;51.448;6.650;2023-06-14T04:28:12;5.15;;;2.95;;
22024;SDS011;11176;51.448;6.650;2023-06-14T04:30:42;5.20;;;3.30;;
22024;SDS011;11176;51.448;6.650;2023-06-14T04:33:09;5.63;;;2.88;;
22024;SDS011;11176;51.448;6.650;2023-06-14T04:35:37;8.43;;;3.35;;
22024;SDS011;11176;51.448;6.650;2023-06-14T04:38:05;8.27;;;3.17;;
22024;SDS011;11176;51.448;6.650;2023-06-14T04:40:35;6.53;;;3.28;;
22024;SDS011;11176;51.448;6.650;2023-06-14T04:43:09;6.72;;;3.25;;
22024;SDS011;11176;51.448;6.650;2023-06-14T04:45:41;5.25;;;2.95;;
22024;SDS011;11176;51.448;6.650;2023-06-14T04:48:11;5.13;;;3.22;;
22024;SDS011;11176;51.448;6.650;2023-06-14T04:50:38;10.38;;;3.35;;
22024;SDS011;11176;51.448;6.650;2023-06-14T04:53:07;8.68;;;3.33;;
22024;SDS011;11176;51.448;6.650;2023-06-14T04:55:35;7.18;;;3.10;;
22024;SDS011;11176;51.448;6.650;2023-06-14T04:58:03;9.75;;;3.28;;
22024;SDS011;11176;51.448;6.650;2023-06-14T05:00:31;9.88;;;3.40;;
22024;SDS011;11176;51.448;6.650;2023-06-14T05:02:58;6.18;;;3.05;;
22024;SDS011;11176;51.448;6.650;2023-06-14T05:05:25;4.80;;;3.00;;
22024;SDS011;11176;51.448;6.650;2023-06-14T05:07:51;10.27;;;3.22;;
22024;SDS011;11176;51.448;6.650;2023-06-14T05:10:18;6.72;;;2.60;;
22024;SDS011;11176;51.448;6.650;2023-06-14T05:12:46;8.02;;;3.00;;
22024;SDS011;11176;51.448;6.650;2023-06-14T05:15:16;8.80;;;3.13;;
22024;SDS011;11176;51.448;6.650;2023-06-14T05:17:43;7.57;;;3.22;;
22024;SDS011;11176;51.448;6.650;2023-06-14T05:20:09;6.15;;;3.38;;
22024;SDS011;11176;51.448;6.650;2023-06-14T05:22:36;6.97;;;3.38;;
22024;SDS011;11176;51.448;6.650;2023-06-14T05:25:03;7.53;;;3.10;;
22024;SDS011;11176;51.448;6.650;2023-06-14T05:27:30;5.47;;;3.20;;
22024;SDS011;11176;51.448;6.650;2023-06-14T05:29:57;26.25;;;7.38;;
22024;SDS011;11176;51.448;6.650;2023-06-14T05:32:25;27.60;;;7.70;;
22024;SDS011;11176;51.448;6.650;2023-06-14T05:34:51;17.13;;;5.85;;
22024;SDS011;11176;51.448;6.650;2023-06-14T05:37:18;16.10;;;5.65;;
22024;SDS011;11176;51.448;6.650;2023-06-14T05:39:44;19.75;;;6.05;;
22024;SDS011;11176;51.448;6.650;2023-06-14T05:42:11;14.65;;;4.80;;
22024;SDS011;11176;51.448;6.650;2023-06-14T05:44:37;11.35;;;3.60;;
22024;SDS011;11176;51.448;6.650;2023-06-14T05:47:05;6.65;;;3.20;;
22024;SDS011;11176;51.448;6.650;2023-06-14T05:49:31;8.45;;;3.03;;
22024;SDS011;11176;51.448;6.650;2023-06-14T05:51:58;5.90;;;3.25;;
22024;SDS011;11176;51.448;6.650;2023-06-14T05:54:24;8.43;;;2.88;;
22024;SDS011;11176;51.448;6.650;2023-06-14T05:56:51;9.05;;;3.33;;
22024;SDS011;11176;51.448;6.650;2023-06-14T05:59:17;8.07;;;2.97;;
22024;SDS011;11176;51.448;6.650;2023-06-14T06:01:45;11.43;;;3.38;;
22024;SDS011;11176;51.448;6.650;2023-06-14T06:04:12;9.48;;;4.00;;
22024;SDS011;11176;51.448;6.650;2023-06-14T06:06:39;6.93;;;3.60;;
22024;SDS011;11176;51.448;6.650;2023-06-14T06:09:06;10.18;;;3.58;;
22024;SDS011;11176;51.448;6.650;2023-06-14T06:11:33;6.60;;;3.28;;
22024;SDS011;11176;51.448;6.650;2023-06-14T06:14:14;12.68;;;3.72;;
22024;SDS011;11176;51.448;6.650;2023-06-14T06:16:40;7.30;;;3.15;;
22024;SDS011;11176;51.448;6.650;2023-06-14T06:19:08;8.57;;;3.50;;
22024;SDS011;11176;51.448;6.650;2023-06-14T06:21:34;9.13;;;3.47;;
22024;SDS011;11176;51.448;6.650;2023-06-14T06:24:00;8.68;;;3.10;;
22024;SDS011;11176;51.448;6.650;2023-06-14T06:26:29;5.00;;;2.92;;
22024;SDS011;11176;51.448;6.650;2023-06-14T06:28:56;5.30;;;2.85;;
22024;SDS011;11176;51.448;6.650;2023-06-14T06:31:23;7.28;;;3.05;;
22024;SDS011;11176;51.448;6.650;2023-06-14T06:33:50;7.55;;;2.88;;
22024;SDS011;11176;51.448;6.650;2023-06-14T06:36:16;4.57;;;2.70;;
22024;SDS011;11176;51.448;6.650;2023-06-14T06:38:43;7.13;;;2.72;;
22024;SDS011;11176;51.448;6.650;2023-06-14T06:41:09;7.78;;;2.88;;
22024;SDS011;11176;51.448;6.650;2023-06-14T06:43:36;6.25;;;2.90;;
22024;SDS011;11176;51.448;6.650;2023-06-14T06:46:02;6.07;;;2.95;;
22024;SDS011;11176;51.448;6.650;2023-06-14T06:48:29;6.50;;;2.75;;
22024;SDS011;11176;51.448;6.650;2023-06-14T06:50:55;7.80;;;2.63;;
22024;SDS011;11176;51.448;6.650;2023-06-14T06:53:22;9.98;;;2.65;;
22024;SDS011;11176;51.448;6.650;2023-06-14T06:56:05;6.75;;;2.45;;
22024;SDS011;11176;51.448;6.650;2023-06-14T06:58:32;4.70;;;2.20;;
22024;SDS011;11176;51.448;6.650;2023-06-14T07:00:58;5.57;;;2.20;;
22024;SDS011;11176;51.448;6.650;2023-06-14T07:03:25;6.60;;;2.13;;
22024;SDS011;11176;51.448;6.650;2023-06-14T07:05:52;6.90;;;2.15;;
22024;SDS011;11176;51.448;6.650;2023-06-14T07:08:19;5.10;;;1.70;;
22024;SDS011;11176;51.448;6.650;2023-06-14T07:10:46;4.97;;;1.77;;
22024;SDS011;11176;51.448;6.650;2023-06-14T07:13:12;10.02;;;2.15;;
22024;SDS011;11176;51.448;6.650;2023-06-14T07:15:40;4.90;;;1.70;;
22024;SDS011;11176;51.448;6.650;2023-06-14T07:18:06;7.32;;;1.90;;
22024;SDS011;11176;51.448;6.650;2023-06-14T07:20:33;5.38;;;1.70;;
22024;SDS011;11176;51.448;6.650;2023-06-14T07:23:00;3.80;;;1.65;;
22024;SDS011;11176;51.448;6.650;2023-06-14T07:25:26;3.15;;;1.30;;
22024;SDS011;11176;51.448;6.650;2023-06-14T07:27:53;3.47;;;1.60;;
22024;SDS011;11176;51.448;6.650;2023-06-14T07:30:19;3.60;;;1.50;;
22024;SDS011;11176;51.448;6.650;2023-06-14T07:32:46;4.25;;;1.63;;
22024;SDS011;11176;51.448;6.650;2023-06-14T07:35:13;4.93;;;1.83;;
22024;SDS011;11176;51.448;6.650;2023-06-14T07:37:40;2.78;;;1.30;;
22024;SDS011;11176;51.448;6.650;2023-06-14T07:40:06;4.35;;;1.85;;
22024;SDS011;11176;51.448;6.650;2023-06-14T07:42:34;5.30;;;1.60;;
22024;SDS011;11176;51.448;6.650;2023-06-14T07:45:03;5.43;;;1.80;;
22024;SDS011;11176;51.448;6.650;2023-06-14T07:47:30;3.78;;;1.70;;
22024;SDS011;11176;51.448;6.650;2023-06-14T07:49:57;4.45;;;1.52;;
22024;SDS011;11176;51.448;6.650;2023-06-14T07:52:23;2.80;;;1.40;;
22024;SDS011;11176;51.448;6.650;2023-06-14T07:54:51;6.22;;;1.50;;
22024;SDS011;11176;51.448;6.650;2023-06-14T07:57:17;4.22;;;1.30;;
22024;SDS011;11176;51.448;6.650;2023-06-14T07:59:46;4.60;;;1.40;;
22024;SDS011;11176;51.448;6.650;2023-06-14T08:02:12;3.90;;;1.40;;
22024;SDS011;11176;51.448;6.650;2023-06-14T08:04:39;4.25;;;1.65;;
22024;SDS011;11176;51.448;6.650;2023-06-14T08:07:05;7.93;;;2.45;;
22024;SDS011;11176;51.448;6.650;2023-06-14T08:09:33;7.50;;;2.92;;
22024;SDS011;11176;51.448;6.650;2023-06-14T08:12:00;4.90;;;1.88;;
22024;SDS011;11176;51.448;6.650;2023-06-14T08:14:26;3.08;;;1.70;;
22024;SDS011;11176;51.448;6.650;2023-06-14T08:16:53;3.97;;;1.50;;
22024;SDS011;11176;51.448;6.650;2023-06-14T08:19:20;7.38;;;1.73;;
22024;SDS011;11176;51.448;6.650;2023-06-14T08:21:46;4.35;;;1.50;;
22024;SDS011;11176;51.448;6.650;2023-06-14T08:24:13;3.47;;;1.70;;
22024;SDS011;11176;51.448;6.650;2023-06-14T08:26:40;5.03;;;1.80;;
22024;SDS011;11176;51.448;6.650;2023-06-14T08:29:07;3.55;;;1.60;;
22024;SDS011;11176;51.448;6.650;2023-06-14T08:31:34;6.28;;;1.52;;
22024;SDS011;11176;51.448;6.650;2023-06-14T08:34:01;3.45;;;1.60;;
22024;SDS011;11176;51.448;6.650;2023-06-14T08:36:30;3.67;;;1.73;;
22024;SDS011;11176;51.448;6.650;2023-06-14T08:38:57;3.88;;;1.60;;
22024;SDS011;11176;51.448;6.650;2023-06-14T08:41:23;5.50;;;1.77;;
22024;SDS011;11176;51.448;6.650;2023-06-14T08:43:53;4.57;;;1.35;;
22024;SDS011;11176;51.448;6.650;2023-06-14T08:46:19;4.15;;;1.48;;
22024;SDS011;11176;51.448;6.650;2023-06-14T08:48:46;8.10;;;1.73;;
22024;SDS011;11176;51.448;6.650;2023-06-14T08:51:16;4.75;;;1.55;;
22024;SDS011;11176;51.448;6.650;2023-06-14T08:53:44;3.10;;;1.40;;
22024;SDS011;11176;51.448;6.650;2023-06-14T08:56:12;4.22;;;1.60;;
22024;SDS011;11176;51.448;6.650;2023-06-14T08:58:42;6.32;;;1.83;;
22024;SDS011;11176;51.448;6.650;2023-06-14T09:01:11;4.40;;;1.63;;
22024;SDS011;11176;51.448;6.650;2023-06-14T09:03:43;4.50;;;1.77;;
22024;SDS011;11176;51.448;6.650;2023-06-14T09:06:11;2.97;;;1.50;;
22024;SDS011;11176;51.448;6.650;2023-06-14T09:08:43;4.82;;;1.80;;
22024;SDS011;11176;51.448;6.650;2023-06-14T09:11:13;3.28;;;1.63;;
22024;SDS011;11176;51.448;6.650;2023-06-14T09:13:41;3.80;;;1.70;;
22024;SDS011;11176;51.448;6.650;2023-06-14T09:16:08;4.07;;;1.70;;
22024;SDS011;11176;51.448;6.650;2023-06-14T09:18:35;4.65;;;1.52;;
22024;SDS011;11176;51.448;6.650;2023-06-14T09:21:07;5.35;;;1.58;;
22024;SDS011;11176;51.448;6.650;2023-06-14T09:23:37;3.08;;;1.40;;
22024;SDS011;11176;51.448;6.650;2023-06-14T09:26:08;3.17;;;1.70;;
22024;SDS011;11176;51.448;6.650;2023-06-14T09:28:36;3.30;;;1.80;;
22024;SDS011;11176;51.448;6.650;2023-06-14T09:31:07;3.15;;;1.55;;
22024;SDS011;11176;51.448;6.650;2023-06-14T09:33:34;4.45;;;1.40;;
22024;SDS011;11176;51.448;6.650;2023-06-14T09:36:01;5.85;;;1.90;;
22024;SDS011;11176;51.448;6.650;2023-06-14T09:38:28;5.47;;;1.55;;
22024;SDS011;11176;51.448;6.650;2023-06-14T09:40:56;8.05;;;1.70;;
22024;SDS011;11176;51.448;6.650;2023-06-14T09:43:24;3.67;;;1.80;;
22024;SDS011;11176;51.448;6.650;2023-06-14T09:45:53;3.75;;;1.25;;
22024;SDS011;11176;51.448;6.650;2023-06-14T09:48:20;2.53;;;1.40;;
22024;SDS011;11176;51.448;6.650;2023-06-14T09:50:47;3.63;;;1.60;;
22024;SDS011;11176;51.448;6.650;2023-06-14T09:53:16;5.18;;;1.77;;
22024;SDS011;11176;51.448;6.650;2023-06-14T09:55:47;2.70;;;1.30;;
22024;SDS011;11176;51.448;6.650;2023-06-14T09:58:17;3.45;;;1.50;;
22024;SDS011;11176;51.448;6.650;2023-06-14T10:00:47;2.53;;;1.50;;
22024;SDS011;11176;51.448;6.650;2023-06-14T10:03:20;2.42;;;1.30;;
22024;SDS011;11176;51.448;6.650;2023-06-14T10:05:51;2.70;;;1.15;;
22024;SDS011;11176;51.448;6.650;2023-06-14T10:08:19;2.22;;;1.00;;
22024;SDS011;11176;51.448;6.650;2023-06-14T10:10:50;2.28;;;1.17;;
22024;SDS011;11176;51.448;6.650;2023-06-14T10:13:16;2.45;;;1.02;;
22024;SDS011;11176;51.448;6.650;2023-06-14T10:18:36;3.88;;;0.95;;
22024;SDS011;11176;51.448;6.650;2023-06-14T10:23:55;2.67;;;1.10;;
22024;SDS011;11176;51.448;6.650;2023-06-14T10:26:26;2.78;;;0.95;;
22024;SDS011;11176;51.448;6.650;2023-06-14T10:29:27;3.53;;;1.20;;
22024;SDS011;11176;51.448;6.650;2023-06-14T10:31:47;2.10;;;0.90;;
22024;SDS011;11176;51.448;6.650;2023-06-14T10:34:24;2.28;;;1.10;;
22024;SDS011;11176;51.448;6.650;2023-06-14T10:39:32;1.27;;;0.75;;
22024;SDS011;11176;51.448;6.650;2023-06-14T10:42:05;3.67;;;0.90;;
22024;SDS011;11176;51.448;6.650;2023-06-14T10:44:40;2.45;;;0.95;;
22024;SDS011;11176;51.448;6.650;2023-06-14T10:47:23;1.23;;;0.60;;
22024;SDS011;11176;51.448;6.650;2023-06-14T10:52:29;2.20;;;0.95;;
22024;SDS011;11176;51.448;6.650;2023-06-14T10:54:58;2.50;;;0.70;;
22024;SDS011;11176;51.448;6.650;2023-06-14T10:57:26;2.13;;;0.70;;
22024;SDS011;11176;51.448;6.650;2023-06-14T10:59:52;3.88;;;0.80;;
22024;SDS011;11176;51.448;6.650;2023-06-14T11:13:03;2.90;;;0.68;;
22024;SDS011;11176;51.448;6.650;2023-06-14T11:15:30;2.45;;;0.77;;
22024;SDS011;11176;51.448;6.650;2023-06-14T11:18:02;2.22;;;0.80;;
22024;SDS011;11176;51.448;6.650;2023-06-14T11:20:30;2.05;;;0.65;;
22024;SDS011;11176;51.448;6.650;2023-06-14T11:22:58;3.63;;;0.80;;
22024;SDS011;11176;51.448;6.650;2023-06-14T11:25:25;1.20;;;0.50;;
22024;SDS011;11176;51.448;6.650;2023-06-14T11:27:54;1.70;;;0.50;;
22024;SDS011;11176;51.448;6.650;2023-06-14T11:30:25;2.03;;;0.70;;
22024;SDS011;11176;51.448;6.650;2023-06-14T11:32:52;1.38;;;0.60;;
22024;SDS011;11176;51.448;6.650;2023-06-14T11:35:23;2.78;;;0.70;;
22024;SDS011;11176;51.448;6.650;2023-06-14T11:37:57;2.03;;;0.63;;
22024;SDS011;11176;51.448;6.650;2023-06-14T11:40:24;2.08;;;0.70;;
22024;SDS011;11176;51.448;6.650;2023-06-14T11:42:58;1.45;;;0.60;;
22024;SDS011;11176;51.448;6.650;2023-06-14T11:45:27;1.73;;;0.70;;
22024;SDS011;11176;51.448;6.650;2023-06-14T11:47:54;3.03;;;0.93;;
22024;SDS011;11176;51.448;6.650;2023-06-14T11:50:25;3.33;;;0.80;;
22024;SDS011;11176;51.448;6.650;2023-06-14T11:52:56;1.42;;;0.80;;
22024;SDS011;11176;51.448;6.650;2023-06-14T11:55:23;3.42;;;0.70;;
22024;SDS011;11176;51.448;6.650;2023-06-14T11:57:53;3.15;;;0.70;;
22024;SDS011;11176;51.448;6.650;2023-06-14T12:00:24;2.10;;;0.60;;
22024;SDS011;11176;51.448;6.650;2023-06-14T12:02:52;2.35;;;0.75;;
22024;SDS011;11176;51.448;6.650;2023-06-14T12:05:22;3.47;;;0.90;;
22024;SDS011;11176;51.448;6.650;2023-06-14T12:07:50;2.13;;;0.70;;
22024;SDS011;11176;51.448;6.650;2023-06-14T12:10:19;2.20;;;0.60;;
22024;SDS011;11176;51.448;6.650;2023-06-14T12:12:46;2.10;;;0.70;;
22024;SDS011;11176;51.448;6.650;2023-06-14T12:15:13;4.40;;;0.85;;
22024;SDS011;11176;51.448;6.650;2023-06-14T12:17:41;3.35;;;0.90;;
22024;SDS011;11176;51.448;6.650;2023-06-14T12:20:10;3.47;;;0.90;;
22024;SDS011;11176;51.448;6.650;2023-06-14T12:22:52;2.97;;;0.88;;
22024;SDS011;11176;51.448;6.650;2023-06-14T12:25:24;2.15;;;0.90;;
22024;SDS011;11176;51.448;6.650;2023-06-14T12:27:58;1.67;;;0.52;;
22024;SDS011;11176;51.448;6.650;2023-06-14T12:30:26;3.42;;;0.82;;
22024;SDS011;11176;51.448;6.650;2023-06-14T12:32:52;3.80;;;0.85;;
22024;SDS011;11176;51.448;6.650;2023-06-14T12:35:19;2.78;;;0.90;;
22024;SDS011;11176;51.448;6.650;2023-06-14T12:37:46;1.27;;;0.75;;
22024;SDS011;11176;51.448;6.650;2023-06-14T12:40:12;1.25;;;0.70;;
22024;SDS011;11176;51.448;6.650;2023-06-14T12:42:40;1.63;;;0.80;;
22024;SDS011;11176;51.448;6.650;2023-06-14T12:45:08;1.83;;;0.80;;
22024;SDS011;11176;51.448;6.650;2023-06-14T12:47:35;2.88;;;0.60;;
22024;SDS011;11176;51.448;6.650;2023-06-14T12:50:02;2.88;;;0.90;;
22024;SDS011;11176;51.448;6.650;2023-06-14T12:52:29;1.33;;;0.70;;
22024;SDS011;11176;51.448;6.650;2023-06-14T12:54:57;3.78;;;0.75;;
22024;SDS011;11176;51.448;6.650;2023-06-14T12:57:23;3.97;;;0.80;;
22024;SDS011;11176;51.448;6.650;2023-06-14T12:59:50;3.53;;;0.80;;
22024;SDS011;11176;51.448;6.650;2023-06-14T13:02:17;1.98;;;0.90;;
22024;SDS011;11176;51.448;6.650;2023-06-14T13:04:51;2.15;;;0.98;;
22024;SDS011;11176;51.448;6.650;2023-06-14T13:07:18;3.05;;;0.85;;
22024;SDS011;11176;51.448;6.650;2023-06-14T13:09:45;2.08;;;0.82;;
22024;SDS011;11176;51.448;6.650;2023-06-14T13:12:12;3.63;;;0.80;;
22024;SDS011;11176;51.448;6.650;2023-06-14T13:14:39;5.57;;;0.93;;
22024;SDS011;11176;51.448;6.650;2023-06-14T13:17:10;3.58;;;1.20;;
22024;SDS011;11176;51.448;6.650;2023-06-14T13:19:37;3.10;;;1.08;;
22024;SDS011;11176;51.448;6.650;2023-06-14T13:22:03;5.53;;;1.10;;
22024;SDS011;11176;51.448;6.650;2023-06-14T13:24:31;3.33;;;1.20;;
22024;SDS011;11176;51.448;6.650;2023-06-14T13:26:58;2.53;;;1.40;;
22024;SDS011;11176;51.448;6.650;2023-06-14T13:29:25;2.83;;;1.00;;
22024;SDS011;11176;51.448;6.650;2023-06-14T13:31:52;3.00;;;1.15;;
22024;SDS011;11176;51.448;6.650;2023-06-14T13:34:19;2.75;;;1.20;;
22024;SDS011;11176;51.448;6.650;2023-06-14T13:36:46;5.18;;;0.90;;
22024;SDS011;11176;51.448;6.650;2023-06-14T13:39:13;2.88;;;1.15;;
22024;SDS011;11176;51.448;6.650;2023-06-14T13:41:40;1.90;;;1.13;;
22024;SDS011;11176;51.448;6.650;2023-06-14T13:44:06;4.10;;;1.25;;
22024;SDS011;11176;51.448;6.650;2023-06-14T13:46:33;2.65;;;1.02;;
22024;SDS011;11176;51.448;6.650;2023-06-14T13:49:00;3.42;;;0.90;;
22024;SDS011;11176;51.448;6.650;2023-06-14T13:51:28;2.28;;;1.10;;
22024;SDS011;11176;51.448;6.650;2023-06-14T13:53:55;4.40;;;1.15;;
22024;SDS011;11176;51.448;6.650;2023-06-14T13:56:22;3.13;;;1.20;;
22024;SDS011;11176;51.448;6.650;2023-06-14T13:58:50;1.65;;;1.00;;
22024;SDS011;11176;51.448;6.650;2023-06-14T14:01:18;4.07;;;1.05;;
22024;SDS011;11176;51.448;6.650;2023-06-14T14:03:46;4.80;;;1.10;;
22024;SDS011;11176;51.448;6.650;2023-06-14T14:06:15;2.53;;;1.20;;
22024;SDS011;11176;51.448;6.650;2023-06-14T14:08:42;2.78;;;1.00;;
22024;SDS011;11176;51.448;6.650;2023-06-14T14:11:10;2.28;;;1.00;;
22024;SDS011;11176;51.448;6.650;2023-06-14T14:13:37;3.25;;;1.05;;
22024;SDS011;11176;51.448;6.650;2023-06-14T14:16:04;3.10;;;1.30;;
22024;SDS011;11176;51.448;6.650;2023-06-14T14:18:31;2.25;;;0.90;;
22024;SDS011;11176;51.448;6.650;2023-06-14T14:20:59;2.13;;;1.00;;
22024;SDS011;11176;51.448;6.650;2023-06-14T14:23:26;3.72;;;1.10;;
22024;SDS011;11176;51.448;6.650;2023-06-14T14:25:53;4.25;;;0.90;;
22024;SDS011;11176;51.448;6.650;2023-06-14T14:28:19;6.90;;;0.98;;
22024;SDS011;11176;51.448;6.650;2023-06-14T14:30:47;4.95;;;0.85;;
22024;SDS011;11176;51.448;6.650;2023-06-14T14:33:14;4.10;;;0.80;;
22024;SDS011;11176;51.448;6.650;2023-06-14T14:35:43;1.88;;;0.90;;
22024;SDS011;11176;51.448;6.650;2023-06-14T14:38:14;1.83;;;0.73;;
22024;SDS011;11176;51.448;6.650;2023-06-14T14:40:44;3.13;;;0.77;;
22024;SDS011;11176;51.448;6.650;2023-06-14T14:43:11;2.15;;;0.88;;
22024;SDS011;11176;51.448;6.650;2023-06-14T14:45:37;8.38;;;1.20;;
22024;SDS011;11176;51.448;6.650;2023-06-14T14:48:04;1.98;;;1.10;;
22024;SDS011;11176;51.448;6.650;2023-06-14T14:50:32;4.05;;;1.30;;
22024;SDS011;11176;51.448;6.650;2023-06-14T14:52:59;2.40;;;0.95;;
22024;SDS011;11176;51.448;6.650;2023-06-14T14:55:25;2.08;;;0.90;;
22024;SDS011;11176;51.448;6.650;2023-06-14T14:57:52;2.28;;;1.00;;
22024;SDS011;11176;51.448;6.650;2023-06-14T15:00:19;1.90;;;0.90;;
22024;SDS011;11176;51.448;6.650;2023-06-14T15:02:46;1.67;;;0.95;;
22024;SDS011;11176;51.448;6.650;2023-06-14T15:05:12;2.53;;;1.02;;
22024;SDS011;11176;51.448;6.650;2023-06-14T15:07:39;2.47;;;1.00;;
22024;SDS011;11176;51.448;6.650;2023-06-14T15:10:06;3.65;;;1.30;;
22024;SDS011;11176;51.448;6.650;2023-06-14T15:12:34;3.08;;;1.10;;
22024;SDS011;11176;51.448;6.650;2023-06-14T15:15:02;3.42;;;1.00;;
22024;SDS011;11176;51.448;6.650;2023-06-14T15:17:29;3.45;;;1.13;;
22024;SDS011;11176;51.448;6.650;2023-06-14T15:19:56;4.53;;;1.50;;